sensor_id;sensor_type;location;lat;lon;timestamp;pressure;altitude;pressure_sealevel;temperature;humidity
46291;BME280;32023;44.444;26.006;2023-04-03T00:01:56;99735.00;;;10.10;88.88
46291;BME280;32023;44.444;26.006;2023-04-03T00:04:25;99733.94;;;10.11;88.63
46291;BME280;32023;44.444;26.006;2023-04-03T00:06:53;99732.25;;;10.10;88.92
46291;BME280;32023;44.444;26.006;2023-04-03T00:09:19;99738.84;;;10.09;89.32
46291;BME280;32023;44.444;26.006;2023-04-03T00:11:46;99736.66;;;10.06;88.85
46291;BME280;32023;44.444;26.006;2023-04-03T00:14:12;99737.19;;;10.03;88.77
46291;BME280;32023;44.444;26.006;2023-04-03T00:16:38;99730.06;;;9.97;88.93
46291;BME280;32023;44.444;26.006;2023-04-03T00:19:05;99734.72;;;9.96;89.08
46291;BME280;32023;44.444;26.006;2023-04-03T00:21:31;99734.97;;;9.95;89.04
46291;BME280;32023;44.444;26.006;2023-04-03T00:24:08;99733.88;;;9.96;89.84
46291;BME280;32023;44.444;26.006;2023-04-03T00:26:42;99726.19;;;9.98;89.88
46291;BME280;32023;44.444;26.006;2023-04-03T00:29:09;99727.28;;;10.02;90.34
46291;BME280;32023;44.444;26.006;2023-04-03T00:31:35;99721.25;;;10.05;89.82
46291;BME280;32023;44.444;26.006;2023-04-03T00:34:02;99724.56;;;10.07;90.03
46291;BME280;32023;44.444;26.006;2023-04-03T00:36:50;99729.78;;;10.08;89.99
46291;BME280;32023;44.444;26.006;2023-04-03T00:39:18;99736.69;;;10.11;90.47
46291;BME280;32023;44.444;26.006;2023-04-03T00:41:45;99735.06;;;10.15;89.84
46291;BME280;32023;44.444;26.006;2023-04-03T00:47:01;99729.00;;;10.18;89.41
46291;BME280;32023;44.444;26.006;2023-04-03T00:49:30;99740.84;;;10.19;89.22
46291;BME280;32023;44.444;26.006;2023-04-03T00:51:57;99742.50;;;10.20;89.41
46291;BME280;32023;44.444;26.006;2023-04-03T00:54:25;99741.69;;;10.19;89.23
46291;BME280;32023;44.444;26.006;2023-04-03T00:56:54;99749.94;;;10.19;88.96
46291;BME280;32023;44.444;26.006;2023-04-03T00:59:25;99754.56;;;10.13;88.29
46291;BME280;32023;44.444;26.006;2023-04-03T01:01:55;99754.00;;;10.06;88.12
46291;BME280;32023;44.444;26.006;2023-04-03T01:04:30;99753.44;;;9.99;87.94
46291;BME280;32023;44.444;26.006;2023-04-03T01:07:01;99742.69;;;9.93;87.96
46291;BME280;32023;44.444;26.006;2023-04-03T01:09:28;99749.78;;;9.84;87.15
46291;BME280;32023;44.444;26.006;2023-04-03T01:12:13;99744.25;;;9.68;87.75
46291;BME280;32023;44.444;26.006;2023-04-03T01:14:52;99748.34;;;9.61;88.43
46291;BME280;32023;44.444;26.006;2023-04-03T01:25:52;99755.72;;;9.50;88.25
46291;BME280;32023;44.444;26.006;2023-04-03T01:28:25;99751.88;;;9.51;88.67
46291;BME280;32023;44.444;26.006;2023-04-03T01:33:34;99757.38;;;9.51;88.23
46291;BME280;32023;44.444;26.006;2023-04-03T01:36:01;99755.97;;;9.49;88.00
46291;BME280;32023;44.444;26.006;2023-04-03T01:38:28;99756.50;;;9.46;88.03
46291;BME280;32023;44.444;26.006;2023-04-03T01:40:54;99760.63;;;9.43;87.88
46291;BME280;32023;44.444;26.006;2023-04-03T01:43:23;99762.81;;;9.41;88.03
46291;BME280;32023;44.444;26.006;2023-04-03T01:45:49;99762.78;;;9.36;87.65
46291;BME280;32023;44.444;26.006;2023-04-03T01:48:19;99757.50;;;9.30;87.74
46291;BME280;32023;44.444;26.006;2023-04-03T01:50:48;99757.22;;;9.26;87.42
46291;BME280;32023;44.444;26.006;2023-04-03T01:53:15;99760.50;;;9.23;87.46
46291;BME280;32023;44.444;26.006;2023-04-03T01:55:44;99758.84;;;9.22;87.68
46291;BME280;32023;44.444;26.006;2023-04-03T01:58:12;99767.91;;;9.23;88.11
46291;BME280;32023;44.444;26.006;2023-04-03T02:00:38;99765.16;;;9.23;87.89
46291;BME280;32023;44.444;26.006;2023-04-03T02:03:04;99758.00;;;9.22;88.82
46291;BME280;32023;44.444;26.006;2023-04-03T02:05:31;99767.38;;;9.21;89.43
46291;BME280;32023;44.444;26.006;2023-04-03T02:07:57;99767.09;;;9.22;89.69
46291;BME280;32023;44.444;26.006;2023-04-03T02:10:27;99762.16;;;9.24;90.11
46291;BME280;32023;44.444;26.006;2023-04-03T02:12:59;99760.50;;;9.23;90.16
46291;BME280;32023;44.444;26.006;2023-04-03T02:15:37;99759.38;;;9.19;90.67
46291;BME280;32023;44.444;26.006;2023-04-03T02:18:10;99769.81;;;9.17;91.40
46291;BME280;32023;44.444;26.006;2023-04-03T02:20:38;99778.03;;;9.12;91.55
46291;BME280;32023;44.444;26.006;2023-04-03T02:23:04;99774.19;;;9.18;91.94
46291;BME280;32023;44.444;26.006;2023-04-03T02:25:34;99776.44;;;9.21;91.84
46291;BME280;32023;44.444;26.006;2023-04-03T02:28:04;99782.47;;;9.23;91.50
46291;BME280;32023;44.444;26.006;2023-04-03T02:30:31;99781.13;;;9.26;91.51
46291;BME280;32023;44.444;26.006;2023-04-03T02:32:57;99749.38;;;9.03;91.16
46291;BME280;32023;44.444;26.006;2023-04-03T02:35:24;99779.72;;;9.23;91.40
46291;BME280;32023;44.444;26.006;2023-04-03T02:37:50;99776.16;;;9.23;91.51
46291;BME280;32023;44.444;26.006;2023-04-03T02:40:17;99774.19;;;9.18;91.52
46291;BME280;32023;44.444;26.006;2023-04-03T02:42:43;99775.31;;;9.17;91.67
46291;BME280;32023;44.444;26.006;2023-04-03T02:45:10;99775.28;;;9.12;91.84
46291;BME280;32023;44.444;26.006;2023-04-03T02:47:36;99776.88;;;9.08;92.04
46291;BME280;32023;44.444;26.006;2023-04-03T02:50:03;99774.69;;;9.05;92.37
46291;BME280;32023;44.444;26.006;2023-04-03T02:52:29;99770.28;;;9.04;92.80
46291;BME280;32023;44.444;26.006;2023-04-03T02:54:56;99770.81;;;9.01;92.45
46291;BME280;32023;44.444;26.006;2023-04-03T02:57:22;99780.97;;;9.00;92.61
46291;BME280;32023;44.444;26.006;2023-04-03T02:59:55;99779.56;;;8.98;92.53
46291;BME280;32023;44.444;26.006;2023-04-03T03:02:23;99782.84;;;8.95;92.40
46291;BME280;32023;44.444;26.006;2023-04-03T03:04:49;99790.50;;;8.93;92.32
46291;BME280;32023;44.444;26.006;2023-04-03T03:07:15;99788.81;;;8.87;91.99
46291;BME280;32023;44.444;26.006;2023-04-03T03:09:42;99783.28;;;8.82;91.90
46291;BME280;32023;44.444;26.006;2023-04-03T03:12:08;99782.94;;;8.73;92.01
46291;BME280;32023;44.444;26.006;2023-04-03T03:14:38;99782.63;;;8.69;92.29
46291;BME280;32023;44.444;26.006;2023-04-03T03:17:04;99783.41;;;8.65;92.49
46291;BME280;32023;44.444;26.006;2023-04-03T03:19:34;99785.34;;;8.64;93.00
46291;BME280;32023;44.444;26.006;2023-04-03T03:22:00;99782.03;;;8.62;92.83
46291;BME280;32023;44.444;26.006;2023-04-03T03:24:27;99788.03;;;8.59;92.89
46291;BME280;32023;44.444;26.006;2023-04-03T03:26:56;99786.13;;;8.60;93.21
46291;BME280;32023;44.444;26.006;2023-04-03T03:29:25;99794.38;;;8.60;93.19
46291;BME280;32023;44.444;26.006;2023-04-03T03:31:52;99788.03;;;8.59;93.47
46291;BME280;32023;44.444;26.006;2023-04-03T03:34:18;99795.44;;;8.59;93.50
46291;BME280;32023;44.444;26.006;2023-04-03T03:36:45;99800.41;;;8.62;93.68
46291;BME280;32023;44.444;26.006;2023-04-03T03:39:14;99796.34;;;8.64;93.52
46291;BME280;32023;44.444;26.006;2023-04-03T03:41:46;99805.66;;;8.63;93.53
46291;BME280;32023;44.444;26.006;2023-04-03T03:44:15;99796.03;;;8.61;93.46
46291;BME280;32023;44.444;26.006;2023-04-03T03:47:09;99801.50;;;8.61;93.18
46291;BME280;32023;44.444;26.006;2023-04-03T03:49:39;99808.91;;;8.60;93.06
46291;BME280;32023;44.444;26.006;2023-04-03T03:52:08;99806.66;;;8.57;92.99
46291;BME280;32023;44.444;26.006;2023-04-03T03:54:41;99808.84;;;8.55;93.34
46291;BME280;32023;44.444;26.006;2023-04-03T03:57:08;99812.16;;;8.57;93.61
46291;BME280;32023;44.444;26.006;2023-04-03T03:59:34;99819.31;;;8.58;93.38
46291;BME280;32023;44.444;26.006;2023-04-03T04:02:01;99811.06;;;8.58;93.62
46291;BME280;32023;44.444;26.006;2023-04-03T04:04:28;99814.41;;;8.60;93.53
46291;BME280;32023;44.444;26.006;2023-04-03T04:06:54;99816.09;;;8.66;93.90
46291;BME280;32023;44.444;26.006;2023-04-03T04:09:21;99818.63;;;8.73;93.99
46291;BME280;32023;44.444;26.006;2023-04-03T04:11:47;99812.09;;;8.79;93.90
46291;BME280;32023;44.444;26.006;2023-04-03T04:14:13;99818.72;;;8.83;93.80
46291;BME280;32023;44.444;26.006;2023-04-03T04:16:40;99830.03;;;8.92;93.98
46291;BME280;32023;44.444;26.006;2023-04-03T04:19:06;99825.16;;;8.99;94.09
46291;BME280;32023;44.444;26.006;2023-04-03T04:21:32;99826.56;;;9.06;93.95
46291;BME280;32023;44.444;26.006;2023-04-03T04:23:59;99827.22;;;9.13;93.63
46291;BME280;32023;44.444;26.006;2023-04-03T04:26:25;99822.59;;;9.24;94.01
46291;BME280;32023;44.444;26.006;2023-04-03T04:28:52;99839.97;;;9.35;93.73
46291;BME280;32023;44.444;26.006;2023-04-03T04:31:24;99837.03;;;9.46;93.58
46291;BME280;32023;44.444;26.006;2023-04-03T04:33:50;99838.75;;;9.57;93.01
46291;BME280;32023;44.444;26.006;2023-04-03T04:36:17;99838.78;;;9.67;92.96
46291;BME280;32023;44.444;26.006;2023-04-03T04:38:43;99837.22;;;9.77;92.32
46291;BME280;32023;44.444;26.006;2023-04-03T04:41:10;99835.00;;;9.79;91.30
46291;BME280;32023;44.444;26.006;2023-04-03T04:43:36;99841.34;;;9.79;90.66
46291;BME280;32023;44.444;26.006;2023-04-03T04:46:05;99843.00;;;9.80;90.94
46291;BME280;32023;44.444;26.006;2023-04-03T04:48:32;99857.53;;;9.76;91.01
46291;BME280;32023;44.444;26.006;2023-04-03T04:50:58;99832.00;;;9.80;90.56
46291;BME280;32023;44.444;26.006;2023-04-03T04:53:24;99842.16;;;9.80;90.79
46291;BME280;32023;44.444;26.006;2023-04-03T04:55:52;99828.41;;;9.80;90.21
46291;BME280;32023;44.444;26.006;2023-04-03T04:58:18;99822.91;;;9.80;90.25
46291;BME280;32023;44.444;26.006;2023-04-03T05:03:54;99832.00;;;9.80;89.76
46291;BME280;32023;44.444;26.006;2023-04-03T05:06:21;99827.88;;;9.78;89.45
46291;BME280;32023;44.444;26.006;2023-04-03T05:08:47;99830.09;;;9.81;89.10
46291;BME280;32023;44.444;26.006;2023-04-03T05:11:14;99832.59;;;9.87;89.39
46291;BME280;32023;44.444;26.006;2023-04-03T05:13:40;99828.50;;;9.95;88.64
46291;BME280;32023;44.444;26.006;2023-04-03T05:16:06;99824.94;;;9.99;87.98
46291;BME280;32023;44.444;26.006;2023-04-03T05:18:33;99824.69;;;10.06;87.43
46291;BME280;32023;44.444;26.006;2023-04-03T05:20:59;99821.97;;;10.16;86.89
46291;BME280;32023;44.444;26.006;2023-04-03T05:23:26;99828.63;;;10.25;85.99
46291;BME280;32023;44.444;26.006;2023-04-03T05:25:52;99828.38;;;10.32;85.05
46291;BME280;32023;44.444;26.006;2023-04-03T05:28:19;99825.09;;;10.45;84.79
46291;BME280;32023;44.444;26.006;2023-04-03T05:30:45;99836.69;;;10.57;83.98
46291;BME280;32023;44.444;26.006;2023-04-03T05:33:18;99836.97;;;10.71;83.38
46291;BME280;32023;44.444;26.006;2023-04-03T05:35:44;99841.41;;;10.82;81.50
46291;BME280;32023;44.444;26.006;2023-04-03T05:38:11;99849.66;;;10.92;80.80
46291;BME280;32023;44.444;26.006;2023-04-03T05:40:38;99850.22;;;11.04;79.99
46291;BME280;32023;44.444;26.006;2023-04-03T05:43:04;99860.13;;;11.15;78.96
46291;BME280;32023;44.444;26.006;2023-04-03T05:45:30;99862.06;;;11.20;76.50
46291;BME280;32023;44.444;26.006;2023-04-03T05:47:57;99874.47;;;11.27;76.64
46291;BME280;32023;44.444;26.006;2023-04-03T05:50:23;99876.13;;;11.28;73.47
46291;BME280;32023;44.444;26.006;2023-04-03T05:52:52;99865.66;;;11.35;73.84
46291;BME280;32023;44.444;26.006;2023-04-03T05:55:26;99876.09;;;11.48;73.79
46291;BME280;32023;44.444;26.006;2023-04-03T05:57:52;99868.66;;;11.49;72.61
46291;BME280;32023;44.444;26.006;2023-04-03T06:00:19;99886.00;;;11.59;72.72
46291;BME280;32023;44.444;26.006;2023-04-03T06:02:45;99879.09;;;11.67;71.45
46291;BME280;32023;44.444;26.006;2023-04-03T06:05:12;99897.88;;;11.75;70.97
46291;BME280;32023;44.444;26.006;2023-04-03T06:07:41;99907.53;;;11.88;70.75
46291;BME280;32023;44.444;26.006;2023-04-03T06:10:12;99906.94;;;11.96;69.56
46291;BME280;32023;44.444;26.006;2023-04-03T06:12:38;99915.78;;;11.93;69.03
46291;BME280;32023;44.444;26.006;2023-04-03T06:15:05;99903.94;;;11.92;67.66
46291;BME280;32023;44.444;26.006;2023-04-03T06:17:33;99924.63;;;11.75;67.84
46291;BME280;32023;44.444;26.006;2023-04-03T06:20:00;99918.56;;;11.63;67.50
46291;BME280;32023;44.444;26.006;2023-04-03T06:22:26;99926.84;;;11.52;68.40
46291;BME280;32023;44.444;26.006;2023-04-03T06:24:56;99937.59;;;11.49;68.44
46291;BME280;32023;44.444;26.006;2023-04-03T06:27:23;99930.97;;;11.50;68.58
46291;BME280;32023;44.444;26.006;2023-04-03T06:29:50;99937.59;;;11.49;68.31
46291;BME280;32023;44.444;26.006;2023-04-03T06:32:16;99932.63;;;11.46;68.85
46291;BME280;32023;44.444;26.006;2023-04-03T06:34:46;99936.78;;;11.43;68.57
46291;BME280;32023;44.444;26.006;2023-04-03T06:37:18;99945.06;;;11.43;69.07
46291;BME280;32023;44.444;26.006;2023-04-03T06:39:45;99942.84;;;11.45;68.95
46291;BME280;32023;44.444;26.006;2023-04-03T06:42:12;99961.56;;;11.48;68.60
46291;BME280;32023;44.444;26.006;2023-04-03T06:44:39;99953.56;;;11.52;67.88
46291;BME280;32023;44.444;26.006;2023-04-03T06:47:05;99952.22;;;11.54;67.50
46291;BME280;32023;44.444;26.006;2023-04-03T06:49:32;99959.94;;;11.63;67.14
46291;BME280;32023;44.444;26.006;2023-04-03T06:52:35;99972.63;;;11.69;65.91
46291;BME280;32023;44.444;26.006;2023-04-03T06:55:25;99967.97;;;11.74;66.61
46291;BME280;32023;44.444;26.006;2023-04-03T06:57:52;99970.97;;;11.88;66.16
46291;BME280;32023;44.444;26.006;2023-04-03T07:00:18;99983.66;;;11.94;65.50
46291;BME280;32023;44.444;26.006;2023-04-03T07:02:47;99985.31;;;12.00;64.79
46291;BME280;32023;44.444;26.006;2023-04-03T07:05:14;99987.78;;;12.01;64.20
46291;BME280;32023;44.444;26.006;2023-04-03T07:07:40;99986.91;;;12.16;64.40
46291;BME280;32023;44.444;26.006;2023-04-03T07:10:08;99997.91;;;12.36;64.63
46291;BME280;32023;44.444;26.006;2023-04-03T07:12:34;99999.50;;;12.57;63.91
46291;BME280;32023;44.444;26.006;2023-04-03T07:15:05;100017.44;;;12.65;63.30
46291;BME280;32023;44.444;26.006;2023-04-03T07:17:31;100008.28;;;12.70;63.24
46291;BME280;32023;44.444;26.006;2023-04-03T07:19:58;100014.34;;;12.77;63.18
46291;BME280;32023;44.444;26.006;2023-04-03T07:22:24;100015.66;;;12.94;63.12
46291;BME280;32023;44.444;26.006;2023-04-03T07:24:51;100015.28;;;13.16;62.69
46291;BME280;32023;44.444;26.006;2023-04-03T07:27:21;100023.06;;;13.53;61.73
46291;BME280;32023;44.444;26.006;2023-04-03T07:29:48;100018.13;;;13.84;61.38
46291;BME280;32023;44.444;26.006;2023-04-03T07:32:15;100036.44;;;14.09;59.30
46291;BME280;32023;44.444;26.006;2023-04-03T07:34:44;100037.28;;;14.09;58.24
46291;BME280;32023;44.444;26.006;2023-04-03T07:37:11;100036.25;;;14.29;57.21
46291;BME280;32023;44.444;26.006;2023-04-03T07:39:38;100042.66;;;14.24;56.42
46291;BME280;32023;44.444;26.006;2023-04-03T07:42:05;100043.81;;;14.23;56.40
46291;BME280;32023;44.444;26.006;2023-04-03T07:44:31;100046.22;;;14.01;56.68
46291;BME280;32023;44.444;26.006;2023-04-03T07:47:01;100052.09;;;13.94;57.51
46291;BME280;32023;44.444;26.006;2023-04-03T07:49:27;100061.38;;;13.75;58.14
46291;BME280;32023;44.444;26.006;2023-04-03T07:51:54;100054.25;;;13.64;58.60
46291;BME280;32023;44.444;26.006;2023-04-03T07:54:21;100052.31;;;13.64;58.69
46291;BME280;32023;44.444;26.006;2023-04-03T07:56:47;100045.81;;;13.84;58.74
46291;BME280;32023;44.444;26.006;2023-04-03T07:59:14;100043.22;;;14.26;58.63
46291;BME280;32023;44.444;26.006;2023-04-03T08:01:43;100041.16;;;14.66;56.87
46291;BME280;32023;44.444;26.006;2023-04-03T08:04:09;100033.50;;;14.81;55.09
46291;BME280;32023;44.444;26.006;2023-04-03T08:06:36;100028.63;;;14.92;55.69
46291;BME280;32023;44.444;26.006;2023-04-03T08:09:06;100036.41;;;15.14;54.82
46291;BME280;32023;44.444;26.006;2023-04-03T08:11:38;100030.56;;;15.15;53.42
46291;BME280;32023;44.444;26.006;2023-04-03T08:14:07;100027.56;;;15.30;53.57
46291;BME280;32023;44.444;26.006;2023-04-03T08:16:33;100024.66;;;15.40;52.78
46291;BME280;32023;44.444;26.006;2023-04-03T08:19:03;100036.91;;;15.58;53.36
46291;BME280;32023;44.444;26.006;2023-04-03T08:21:29;100026.22;;;15.84;53.02
46291;BME280;32023;44.444;26.006;2023-04-03T08:23:55;100028.69;;;16.18;51.99
46291;BME280;32023;44.444;26.006;2023-04-03T08:26:34;100028.34;;;16.52;51.03
46291;BME280;32023;44.444;26.006;2023-04-03T08:29:01;100028.19;;;16.75;49.83
46291;BME280;32023;44.444;26.006;2023-04-03T08:31:28;100021.00;;;16.88;49.63
46291;BME280;32023;44.444;26.006;2023-04-03T08:33:56;100017.13;;;17.11;48.40
46291;BME280;32023;44.444;26.006;2023-04-03T08:36:24;100027.88;;;17.18;47.86
46291;BME280;32023;44.444;26.006;2023-04-03T08:38:53;100012.88;;;17.27;46.77
46291;BME280;32023;44.444;26.006;2023-04-03T08:47:24;100021.09;;;17.82;44.94
46291;BME280;32023;44.444;26.006;2023-04-03T08:50:04;100018.91;;;17.57;45.72
46291;BME280;32023;44.444;26.006;2023-04-03T08:53:09;100038.94;;;17.59;45.77
46291;BME280;32023;44.444;26.006;2023-04-03T08:59:16;100034.69;;;17.61;44.88
46291;BME280;32023;44.444;26.006;2023-04-03T09:05:51;100032.38;;;17.99;44.45
46291;BME280;32023;44.444;26.006;2023-04-03T09:08:45;100033.22;;;18.31;43.63
46291;BME280;32023;44.444;26.006;2023-04-03T09:12:24;100013.16;;;18.51;43.62
46291;BME280;32023;44.444;26.006;2023-04-03T09:24:47;99994.13;;;19.66;41.66
46291;BME280;32023;44.444;26.006;2023-04-03T09:27:15;99975.53;;;19.61;41.71
46291;BME280;32023;44.444;26.006;2023-04-03T09:29:45;99989.00;;;19.77;41.39
46291;BME280;32023;44.444;26.006;2023-04-03T09:32:27;99979.63;;;19.64;41.06
46291;BME280;32023;44.444;26.006;2023-04-03T09:35:04;99980.59;;;19.34;41.81
46291;BME280;32023;44.444;26.006;2023-04-03T09:37:36;99977.41;;;18.92;42.64
46291;BME280;32023;44.444;26.006;2023-04-03T09:40:36;99985.69;;;19.40;42.05
46291;BME280;32023;44.444;26.006;2023-04-03T09:43:32;99990.47;;;19.57;41.17
46291;BME280;32023;44.444;26.006;2023-04-03T09:46:33;99993.72;;;19.24;41.94
46291;BME280;32023;44.444;26.006;2023-04-03T09:49:05;99995.50;;;19.03;42.27
46291;BME280;32023;44.444;26.006;2023-04-03T09:51:35;100005.25;;;18.75;42.37
46291;BME280;32023;44.444;26.006;2023-04-03T09:54:31;99992.91;;;18.37;42.17
46291;BME280;32023;44.444;26.006;2023-04-03T09:57:10;99998.94;;;17.99;42.94
46291;BME280;32023;44.444;26.006;2023-04-03T09:59:58;99996.06;;;18.13;43.26
46291;BME280;32023;44.444;26.006;2023-04-03T10:02:32;99991.41;;;18.31;42.64
46291;BME280;32023;44.444;26.006;2023-04-03T10:04:58;99997.44;;;18.55;42.56
46291;BME280;32023;44.444;26.006;2023-04-03T10:07:34;99973.88;;;18.69;41.55
46291;BME280;32023;44.444;26.006;2023-04-03T10:10:23;99973.78;;;18.83;41.37
46291;BME280;32023;44.444;26.006;2023-04-03T10:13:07;99971.19;;;18.95;41.65
46291;BME280;32023;44.444;26.006;2023-04-03T10:15:43;99961.16;;;18.94;41.60
46291;BME280;32023;44.444;26.006;2023-04-03T10:21:46;99977.97;;;19.29;41.56
46291;BME280;32023;44.444;26.006;2023-04-03T10:44:42;99967.50;;;21.08;37.01
46291;BME280;32023;44.444;26.006;2023-04-03T10:56:31;99961.91;;;19.68;39.90
46291;BME280;32023;44.444;26.006;2023-04-03T10:59:32;99964.53;;;19.56;39.66
46291;BME280;32023;44.444;26.006;2023-04-03T11:02:13;99955.13;;;19.18;40.74
46291;BME280;32023;44.444;26.006;2023-04-03T11:05:59;99946.41;;;19.02;41.23
46291;BME280;32023;44.444;26.006;2023-04-03T11:08:00;99961.81;;;18.91;41.88
46291;BME280;32023;44.444;26.006;2023-04-03T11:10:48;99954.28;;;19.00;41.76
46291;BME280;32023;44.444;26.006;2023-04-03T11:13:33;99954.59;;;19.07;41.67
46291;BME280;32023;44.444;26.006;2023-04-03T11:16:07;99955.97;;;19.18;41.58
46291;BME280;32023;44.444;26.006;2023-04-03T11:22:16;99956.06;;;18.96;41.95
46291;BME280;32023;44.444;26.006;2023-04-03T11:32:01;99955.31;;;19.39;41.88
46291;BME280;32023;44.444;26.006;2023-04-03T11:34:54;99956.25;;;20.11;39.47
46291;BME280;32023;44.444;26.006;2023-04-03T11:47:07;99938.16;;;20.85;37.66
46291;BME280;32023;44.444;26.006;2023-04-03T11:55:58;99939.22;;;19.36;41.16
46291;BME280;32023;44.444;26.006;2023-04-03T11:58:35;99938.84;;;19.11;41.77
46291;BME280;32023;44.444;26.006;2023-04-03T12:04:37;99927.06;;;18.18;43.81
46291;BME280;32023;44.444;26.006;2023-04-03T12:07:19;99923.94;;;17.58;43.79
46291;BME280;32023;44.444;26.006;2023-04-03T12:10:37;99941.78;;;17.21;44.67
46291;BME280;32023;44.444;26.006;2023-04-03T12:13:15;99931.50;;;17.22;44.82
46291;BME280;32023;44.444;26.006;2023-04-03T12:28:56;99932.88;;;16.97;48.04
46291;BME280;32023;44.444;26.006;2023-04-03T12:31:25;99926.28;;;16.93;48.50
46291;BME280;32023;44.444;26.006;2023-04-03T12:36:43;99927.25;;;16.75;49.32
46291;BME280;32023;44.444;26.006;2023-04-03T12:44:54;99911.94;;;16.50;49.89
46291;BME280;32023;44.444;26.006;2023-04-03T12:47:28;99914.00;;;16.31;50.56
46291;BME280;32023;44.444;26.006;2023-04-03T12:50:02;99909.44;;;16.08;51.83
46291;BME280;32023;44.444;26.006;2023-04-03T12:52:39;99914.88;;;15.99;53.01
46291;BME280;32023;44.444;26.006;2023-04-03T12:55:18;99902.81;;;15.90;52.93
46291;BME280;32023;44.444;26.006;2023-04-03T12:57:46;99913.50;;;15.83;53.03
46291;BME280;32023;44.444;26.006;2023-04-03T13:00:20;99912.56;;;15.74;53.23
46291;BME280;32023;44.444;26.006;2023-04-03T13:02:47;99913.41;;;15.74;53.68
46291;BME280;32023;44.444;26.006;2023-04-03T13:05:19;99911.97;;;15.77;53.71
46291;BME280;32023;44.444;26.006;2023-04-03T13:07:58;99914.00;;;15.71;54.22
46291;BME280;32023;44.444;26.006;2023-04-03T13:10:25;99918.13;;;15.74;53.77
46291;BME280;32023;44.444;26.006;2023-04-03T13:12:58;99914.94;;;15.67;53.31
46291;BME280;32023;44.444;26.006;2023-04-03T13:15:45;99907.78;;;15.61;52.89
46291;BME280;32023;44.444;26.006;2023-04-03T13:18:41;99930.09;;;15.56;53.24
46291;BME280;32023;44.444;26.006;2023-04-03T13:21:26;99921.25;;;15.54;53.70
46291;BME280;32023;44.444;26.006;2023-04-03T13:24:02;99916.31;;;15.51;53.86
46291;BME280;32023;44.444;26.006;2023-04-03T13:26:36;99911.34;;;15.48;54.01
46291;BME280;32023;44.444;26.006;2023-04-03T13:29:16;99904.75;;;15.43;54.57
46291;BME280;32023;44.444;26.006;2023-04-03T13:31:47;99908.72;;;15.37;54.47
46291;BME280;32023;44.444;26.006;2023-04-03T13:34:21;99902.59;;;15.40;54.52
46291;BME280;32023;44.444;26.006;2023-04-03T13:39:29;99908.72;;;15.37;54.61
46291;BME280;32023;44.444;26.006;2023-04-03T13:42:16;99910.06;;;15.40;54.81
46291;BME280;32023;44.444;26.006;2023-04-03T13:44:46;99909.09;;;15.31;54.89
46291;BME280;32023;44.444;26.006;2023-04-03T13:47:22;99909.94;;;15.31;55.39
46291;BME280;32023;44.444;26.006;2023-04-03T13:50:12;99906.13;;;15.27;55.67
46291;BME280;32023;44.444;26.006;2023-04-03T13:56:09;99908.72;;;15.37;55.61
46291;BME280;32023;44.444;26.006;2023-04-03T13:58:55;99898.00;;;15.31;54.07
46291;BME280;32023;44.444;26.006;2023-04-03T14:01:25;99903.56;;;15.31;54.78
46291;BME280;32023;44.444;26.006;2023-04-03T14:04:01;99914.25;;;15.37;54.47
46291;BME280;32023;44.444;26.006;2023-04-03T14:06:38;99896.53;;;15.20;54.87
46291;BME280;32023;44.444;26.006;2023-04-03T14:09:05;99905.38;;;15.03;55.20
46291;BME280;32023;44.444;26.006;2023-04-03T14:11:35;99922.31;;;15.02;55.30
46291;BME280;32023;44.444;26.006;2023-04-03T14:14:09;99907.63;;;15.01;55.10
46291;BME280;32023;44.444;26.006;2023-04-03T14:16:40;99906.97;;;15.09;55.22
46291;BME280;32023;44.444;26.006;2023-04-03T14:19:09;99904.19;;;15.09;54.57
46291;BME280;32023;44.444;26.006;2023-04-03T14:21:41;99914.06;;;14.97;54.91
46291;BME280;32023;44.444;26.006;2023-04-03T14:24:07;99907.84;;;14.86;55.63
46291;BME280;32023;44.444;26.006;2023-04-03T14:26:33;99910.25;;;14.74;56.52
46291;BME280;32023;44.444;26.006;2023-04-03T14:29:00;99918.66;;;14.69;57.01
46291;BME280;32023;44.444;26.006;2023-04-03T14:31:27;99909.03;;;14.61;57.17
46291;BME280;32023;44.444;26.006;2023-04-03T14:33:53;99917.34;;;14.61;57.62
46291;BME280;32023;44.444;26.006;2023-04-03T14:36:28;99910.38;;;14.64;57.97
46291;BME280;32023;44.444;26.006;2023-04-03T14:38:55;99905.34;;;14.66;57.76
46291;BME280;32023;44.444;26.006;2023-04-03T14:41:24;99904.78;;;14.69;57.73
46291;BME280;32023;44.444;26.006;2023-04-03T14:43:52;99903.88;;;14.73;57.96
46291;BME280;32023;44.444;26.006;2023-04-03T14:46:32;99901.94;;;14.74;57.46
46291;BME280;32023;44.444;26.006;2023-04-03T14:49:00;99885.91;;;14.71;56.63
46291;BME280;32023;44.444;26.006;2023-04-03T14:51:27;99900.34;;;14.68;56.48
46291;BME280;32023;44.444;26.006;2023-04-03T14:53:54;99902.91;;;14.64;56.28
46291;BME280;32023;44.444;26.006;2023-04-03T14:56:29;99907.91;;;14.62;56.39
46291;BME280;32023;44.444;26.006;2023-04-03T14:59:11;99908.72;;;14.63;56.71
46291;BME280;32023;44.444;26.006;2023-04-03T15:01:38;99899.91;;;14.61;56.74
46291;BME280;32023;44.444;26.006;2023-04-03T15:04:31;99908.22;;;14.61;56.93
46291;BME280;32023;44.444;26.006;2023-04-03T15:06:58;99907.66;;;14.59;57.04
46291;BME280;32023;44.444;26.006;2023-04-03T15:09:26;99905.22;;;14.57;57.34
46291;BME280;32023;44.444;26.006;2023-04-03T15:11:53;99905.34;;;14.47;57.33
46291;BME280;32023;44.444;26.006;2023-04-03T15:14:21;99896.78;;;14.43;57.48
46291;BME280;32023;44.444;26.006;2023-04-03T15:16:48;99910.19;;;14.36;57.50
46291;BME280;32023;44.444;26.006;2023-04-03T15:19:15;99912.44;;;14.34;57.92
46291;BME280;32023;44.444;26.006;2023-04-03T15:21:42;99903.25;;;14.34;58.22
46291;BME280;32023;44.444;26.006;2023-04-03T15:24:09;99906.41;;;14.27;58.96
46291;BME280;32023;44.444;26.006;2023-04-03T15:26:36;99901.78;;;14.18;59.56